sensor_id;sensor_type;location;lat;lon;timestamp;P1;durP1;ratioP1;P2;durP2;ratioP2
12435;SDS011;6282;51.440;6.938;2023-04-01T00:01:19;2.65;;;0.88;;
12435;SDS011;6282;51.440;6.938;2023-04-01T00:03:46;2.30;;;1.13;;
12435;SDS011;6282;51.440;6.938;2023-04-01T00:06:14;1.73;;;1.00;;
12435;SDS011;6282;51.440;6.938;2023-04-01T00:08:42;6.90;;;4.40;;
12435;SDS011;6282;51.440;6.938;2023-04-01T00:11:10;9.48;;;1.30;;
12435;SDS011;6282;51.440;6.938;2023-04-01T00:13:38;11.30;;;8.18;;
12435;SDS011;6282;51.440;6.938;2023-04-01T00:16:06;2.28;;;1.38;;
12435;SDS011;6282;51.440;6.938;2023-04-01T00:18:33;4.18;;;1.13;;
12435;SDS011;6282;51.440;6.938;2023-04-01T00:21:00;3.70;;;0.80;;
12435;SDS011;6282;51.440;6.938;2023-04-01T00:23:26;3.25;;;1.17;;
12435;SDS011;6282;51.440;6.938;2023-04-01T00:25:53;2.00;;;0.80;;
12435;SDS011;6282;51.440;6.938;2023-04-01T00:28:20;3.63;;;1.70;;
12435;SDS011;6282;51.440;6.938;2023-04-01T00:30:48;3.80;;;2.47;;
12435;SDS011;6282;51.440;6.938;2023-04-01T00:33:15;4.82;;;1.02;;
12435;SDS011;6282;51.440;6.938;2023-04-01T00:35:42;2.78;;;1.00;;
12435;SDS011;6282;51.440;6.938;2023-04-01T00:38:09;2.55;;;0.60;;
12435;SDS011;6282;51.440;6.938;2023-04-01T00:40:37;8.55;;;6.20;;
12435;SDS011;6282;51.440;6.938;2023-04-01T00:43:09;2.90;;;1.00;;
12435;SDS011;6282;51.440;6.938;2023-04-01T00:45:37;15.85;;;9.48;;
12435;SDS011;6282;51.440;6.938;2023-04-01T00:48:08;4.28;;;0.85;;
12435;SDS011;6282;51.440;6.938;2023-04-01T00:50:37;2.25;;;0.70;;
12435;SDS011;6282;51.440;6.938;2023-04-01T00:53:07;2.13;;;1.05;;
12435;SDS011;6282;51.440;6.938;2023-04-01T00:55:35;1.60;;;0.90;;
12435;SDS011;6282;51.440;6.938;2023-04-01T00:58:06;1.98;;;0.90;;
12435;SDS011;6282;51.440;6.938;2023-04-01T01:00:37;1.77;;;1.10;;
12435;SDS011;6282;51.440;6.938;2023-04-01T01:03:04;2.50;;;1.50;;
12435;SDS011;6282;51.440;6.938;2023-04-01T01:05:36;4.65;;;4.20;;
12435;SDS011;6282;51.440;6.938;2023-04-01T01:08:16;3.45;;;1.33;;
12435;SDS011;6282;51.440;6.938;2023-04-01T01:10:50;2.78;;;1.20;;
12435;SDS011;6282;51.440;6.938;2023-04-01T01:13:18;1.42;;;1.00;;
12435;SDS011;6282;51.440;6.938;2023-04-01T01:15:51;46.40;;;30.02;;
12435;SDS011;6282;51.440;6.938;2023-04-01T01:18:27;11.23;;;9.98;;
12435;SDS011;6282;51.440;6.938;2023-04-01T01:27:03;3.10;;;0.80;;
12435;SDS011;6282;51.440;6.938;2023-04-01T01:32:36;2.08;;;0.75;;
12435;SDS011;6282;51.440;6.938;2023-04-01T01:35:20;3.75;;;0.90;;
12435;SDS011;6282;51.440;6.938;2023-04-01T01:37:51;2.20;;;0.85;;
12435;SDS011;6282;51.440;6.938;2023-04-01T01:40:21;9.75;;;6.68;;
12435;SDS011;6282;51.440;6.938;2023-04-01T01:42:52;3.78;;;1.30;;
12435;SDS011;6282;51.440;6.938;2023-04-01T01:45:21;2.58;;;0.80;;
12435;SDS011;6282;51.440;6.938;2023-04-01T01:47:52;1.13;;;1.02;;
12435;SDS011;6282;51.440;6.938;2023-04-01T01:50:21;2.40;;;1.10;;
12435;SDS011;6282;51.440;6.938;2023-04-01T01:52:48;1.52;;;0.77;;
12435;SDS011;6282;51.440;6.938;2023-04-01T01:55:26;4.07;;;0.90;;
12435;SDS011;6282;51.440;6.938;2023-04-01T01:57:55;2.50;;;0.93;;
12435;SDS011;6282;51.440;6.938;2023-04-01T02:00:24;2.72;;;0.85;;
12435;SDS011;6282;51.440;6.938;2023-04-01T02:02:52;1.23;;;0.70;;
12435;SDS011;6282;51.440;6.938;2023-04-01T02:05:22;2.40;;;0.90;;
12435;SDS011;6282;51.440;6.938;2023-04-01T02:07:55;0.70;;;0.70;;
12435;SDS011;6282;51.440;6.938;2023-04-01T02:10:27;90.15;;;20.95;;
12435;SDS011;6282;51.440;6.938;2023-04-01T02:12:58;1.15;;;0.70;;
12435;SDS011;6282;51.440;6.938;2023-04-01T02:15:28;0.77;;;0.68;;
12435;SDS011;6282;51.440;6.938;2023-04-01T02:17:59;1.85;;;0.70;;
12435;SDS011;6282;51.440;6.938;2023-04-01T02:20:28;2.72;;;0.73;;
12435;SDS011;6282;51.440;6.938;2023-04-01T02:22:56;1.70;;;0.80;;
12435;SDS011;6282;51.440;6.938;2023-04-01T02:25:33;0.90;;;0.70;;
12435;SDS011;6282;51.440;6.938;2023-04-01T02:28:04;0.70;;;0.70;;
12435;SDS011;6282;51.440;6.938;2023-04-01T02:30:33;2.10;;;0.80;;
12435;SDS011;6282;51.440;6.938;2023-04-01T02:33:02;3.85;;;2.38;;
12435;SDS011;6282;51.440;6.938;2023-04-01T02:35:33;2.05;;;0.88;;
12435;SDS011;6282;51.440;6.938;2023-04-01T02:38:02;1.45;;;1.05;;
12435;SDS011;6282;51.440;6.938;2023-04-01T02:40:40;2.67;;;1.00;;
12435;SDS011;6282;51.440;6.938;2023-04-01T02:43:11;2.42;;;0.90;;
12435;SDS011;6282;51.440;6.938;2023-04-01T02:45:37;4.30;;;1.02;;
12435;SDS011;6282;51.440;6.938;2023-04-01T02:48:05;2.03;;;0.95;;
12435;SDS011;6282;51.440;6.938;2023-04-01T02:50:34;1.75;;;0.90;;
12435;SDS011;6282;51.440;6.938;2023-04-01T02:53:00;3.17;;;0.90;;
12435;SDS011;6282;51.440;6.938;2023-04-01T02:55:28;0.90;;;0.85;;
12435;SDS011;6282;51.440;6.938;2023-04-01T02:57:55;2.00;;;1.00;;
12435;SDS011;6282;51.440;6.938;2023-04-01T03:00:22;4.20;;;0.98;;
12435;SDS011;6282;51.440;6.938;2023-04-01T03:02:50;2.15;;;1.00;;
12435;SDS011;6282;51.440;6.938;2023-04-01T03:05:17;1.08;;;0.82;;
12435;SDS011;6282;51.440;6.938;2023-04-01T03:07:45;2.47;;;0.90;;
12435;SDS011;6282;51.440;6.938;2023-04-01T03:10:12;1.73;;;0.80;;
12435;SDS011;6282;51.440;6.938;2023-04-01T03:12:40;1.02;;;1.02;;
12435;SDS011;6282;51.440;6.938;2023-04-01T03:15:08;2.50;;;1.10;;
12435;SDS011;6282;51.440;6.938;2023-04-01T03:17:37;1.67;;;0.90;;
12435;SDS011;6282;51.440;6.938;2023-04-01T03:20:04;1.93;;;1.20;;
12435;SDS011;6282;51.440;6.938;2023-04-01T03:22:33;2.60;;;2.40;;
12435;SDS011;6282;51.440;6.938;2023-04-01T03:25:01;2.70;;;1.20;;
12435;SDS011;6282;51.440;6.938;2023-04-01T03:27:28;3.67;;;1.40;;
12435;SDS011;6282;51.440;6.938;2023-04-01T03:29:55;2.05;;;1.20;;
12435;SDS011;6282;51.440;6.938;2023-04-01T03:32:22;2.95;;;1.42;;
12435;SDS011;6282;51.440;6.938;2023-04-01T03:34:49;1.20;;;1.10;;
12435;SDS011;6282;51.440;6.938;2023-04-01T03:37:15;1.85;;;1.08;;
12435;SDS011;6282;51.440;6.938;2023-04-01T03:39:42;1.38;;;1.30;;
12435;SDS011;6282;51.440;6.938;2023-04-01T03:42:11;2.70;;;1.40;;
12435;SDS011;6282;51.440;6.938;2023-04-01T03:44:38;1.60;;;1.25;;
12435;SDS011;6282;51.440;6.938;2023-04-01T03:47:05;1.93;;;1.50;;
12435;SDS011;6282;51.440;6.938;2023-04-01T03:49:34;1.65;;;1.55;;
12435;SDS011;6282;51.440;6.938;2023-04-01T03:52:01;1.40;;;1.30;;
12435;SDS011;6282;51.440;6.938;2023-04-01T03:54:27;1.45;;;1.35;;
12435;SDS011;6282;51.440;6.938;2023-04-01T03:56:54;2.70;;;1.80;;
12435;SDS011;6282;51.440;6.938;2023-04-01T03:59:24;4.57;;;4.13;;
12435;SDS011;6282;51.440;6.938;2023-04-01T04:01:51;2.70;;;1.88;;
12435;SDS011;6282;51.440;6.938;2023-04-01T04:04:17;2.38;;;1.77;;
12435;SDS011;6282;51.440;6.938;2023-04-01T04:06:45;2.08;;;1.90;;
12435;SDS011;6282;51.440;6.938;2023-04-01T04:09:11;2.80;;;1.75;;
12435;SDS011;6282;51.440;6.938;2023-04-01T04:11:38;1.92;;;1.75;;
12435;SDS011;6282;51.440;6.938;2023-04-01T04:14:05;3.00;;;1.98;;
12435;SDS011;6282;51.440;6.938;2023-04-01T04:16:35;2.75;;;1.45;;
12435;SDS011;6282;51.440;6.938;2023-04-01T04:19:03;2.35;;;1.50;;
12435;SDS011;6282;51.440;6.938;2023-04-01T04:21:30;1.92;;;1.70;;
12435;SDS011;6282;51.440;6.938;2023-04-01T04:23:57;3.30;;;1.50;;
12435;SDS011;6282;51.440;6.938;2023-04-01T04:26:25;1.67;;;1.58;;
12435;SDS011;6282;51.440;6.938;2023-04-01T04:28:53;1.77;;;1.67;;
12435;SDS011;6282;51.440;6.938;2023-04-01T04:31:21;4.20;;;1.75;;
12435;SDS011;6282;51.440;6.938;2023-04-01T04:33:50;2.20;;;2.00;;
12435;SDS011;6282;51.440;6.938;2023-04-01T04:36:18;2.25;;;1.90;;
12435;SDS011;6282;51.440;6.938;2023-04-01T04:38:45;2.42;;;2.22;;
12435;SDS011;6282;51.440;6.938;2023-04-01T04:41:13;4.07;;;1.90;;
12435;SDS011;6282;51.440;6.938;2023-04-01T04:43:48;3.28;;;1.85;;
12435;SDS011;6282;51.440;6.938;2023-04-01T04:46:15;2.00;;;1.75;;
12435;SDS011;6282;51.440;6.938;2023-04-01T04:48:42;2.45;;;1.95;;
12435;SDS011;6282;51.440;6.938;2023-04-01T04:51:13;1.95;;;1.85;;
12435;SDS011;6282;51.440;6.938;2023-04-01T04:53:41;1.83;;;1.73;;
12435;SDS011;6282;51.440;6.938;2023-04-01T04:56:08;1.75;;;1.65;;
12435;SDS011;6282;51.440;6.938;2023-04-01T04:58:35;2.08;;;1.88;;
12435;SDS011;6282;51.440;6.938;2023-04-01T05:01:05;3.25;;;2.53;;
12435;SDS011;6282;51.440;6.938;2023-04-01T05:03:33;2.67;;;1.83;;
12435;SDS011;6282;51.440;6.938;2023-04-01T05:05:59;3.00;;;2.63;;
12435;SDS011;6282;51.440;6.938;2023-04-01T05:08:28;2.17;;;2.08;;
12435;SDS011;6282;51.440;6.938;2023-04-01T05:10:55;2.45;;;2.15;;
12435;SDS011;6282;51.440;6.938;2023-04-01T05:13:21;3.63;;;2.20;;
12435;SDS011;6282;51.440;6.938;2023-04-01T05:15:48;3.67;;;2.50;;
12435;SDS011;6282;51.440;6.938;2023-04-01T05:18:15;2.67;;;2.47;;
12435;SDS011;6282;51.440;6.938;2023-04-01T05:20:45;3.83;;;2.08;;
12435;SDS011;6282;51.440;6.938;2023-04-01T05:23:13;2.42;;;2.22;;
12435;SDS011;6282;51.440;6.938;2023-04-01T05:25:42;3.67;;;2.75;;
12435;SDS011;6282;51.440;6.938;2023-04-01T05:28:09;4.63;;;2.80;;
12435;SDS011;6282;51.440;6.938;2023-04-01T05:30:39;2.92;;;2.67;;
12435;SDS011;6282;51.440;6.938;2023-04-01T05:33:06;3.03;;;2.65;;
12435;SDS011;6282;51.440;6.938;2023-04-01T05:35:33;3.20;;;2.90;;
12435;SDS011;6282;51.440;6.938;2023-04-01T05:38:00;3.03;;;2.70;;
12435;SDS011;6282;51.440;6.938;2023-04-01T05:40:27;3.08;;;2.80;;
12435;SDS011;6282;51.440;6.938;2023-04-01T05:42:55;3.45;;;2.58;;
12435;SDS011;6282;51.440;6.938;2023-04-01T05:45:22;3.83;;;2.72;;
12435;SDS011;6282;51.440;6.938;2023-04-01T05:47:49;3.65;;;3.00;;
12435;SDS011;6282;51.440;6.938;2023-04-01T05:50:16;3.05;;;2.83;;
12435;SDS011;6282;51.440;6.938;2023-04-01T05:52:44;2.80;;;2.55;;
12435;SDS011;6282;51.440;6.938;2023-04-01T05:55:10;3.42;;;3.10;;
12435;SDS011;6282;51.440;6.938;2023-04-01T05:57:37;3.05;;;2.75;;
12435;SDS011;6282;51.440;6.938;2023-04-01T06:00:06;3.47;;;3.17;;
12435;SDS011;6282;51.440;6.938;2023-04-01T06:02:34;3.40;;;3.03;;
12435;SDS011;6282;51.440;6.938;2023-04-01T06:05:03;2.80;;;2.50;;
12435;SDS011;6282;51.440;6.938;2023-04-01T06:07:39;3.25;;;3.00;;
12435;SDS011;6282;51.440;6.938;2023-04-01T06:10:10;2.97;;;2.75;;
12435;SDS011;6282;51.440;6.938;2023-04-01T06:12:41;3.65;;;3.28;;
12435;SDS011;6282;51.440;6.938;2023-04-01T06:15:25;3.28;;;2.97;;
12435;SDS011;6282;51.440;6.938;2023-04-01T06:18:24;4.00;;;3.60;;
12435;SDS011;6282;51.440;6.938;2023-04-01T06:21:07;3.40;;;3.10;;
12435;SDS011;6282;51.440;6.938;2023-04-01T06:23:54;3.53;;;3.22;;
12435;SDS011;6282;51.440;6.938;2023-04-01T06:26:29;5.10;;;4.70;;
12435;SDS011;6282;51.440;6.938;2023-04-01T06:32:15;5.88;;;3.65;;
12435;SDS011;6282;51.440;6.938;2023-04-01T06:41:21;3.58;;;3.05;;
12435;SDS011;6282;51.440;6.938;2023-04-01T06:44:04;3.78;;;3.30;;
12435;SDS011;6282;51.440;6.938;2023-04-01T06:46:42;4.65;;;3.60;;
12435;SDS011;6282;51.440;6.938;2023-04-01T06:49:21;3.78;;;3.47;;
12435;SDS011;6282;51.440;6.938;2023-04-01T06:51:59;5.40;;;3.70;;
12435;SDS011;6282;51.440;6.938;2023-04-01T06:54:32;3.70;;;3.40;;
12435;SDS011;6282;51.440;6.938;2023-04-01T06:57:02;3.50;;;3.20;;
12435;SDS011;6282;51.440;6.938;2023-04-01T06:59:37;3.83;;;3.28;;
12435;SDS011;6282;51.440;6.938;2023-04-01T07:02:05;3.95;;;3.55;;
12435;SDS011;6282;51.440;6.938;2023-04-01T07:04:47;3.95;;;3.47;;
12435;SDS011;6282;51.440;6.938;2023-04-01T07:07:19;3.55;;;3.25;;
12435;SDS011;6282;51.440;6.938;2023-04-01T07:09:53;4.82;;;3.53;;
12435;SDS011;6282;51.440;6.938;2023-04-01T07:12:27;5.10;;;4.13;;
12435;SDS011;6282;51.440;6.938;2023-04-01T07:15:01;5.82;;;4.22;;
12435;SDS011;6282;51.440;6.938;2023-04-01T07:17:38;4.97;;;4.47;;
12435;SDS011;6282;51.440;6.938;2023-04-01T07:20:12;5.00;;;4.50;;
12435;SDS011;6282;51.440;6.938;2023-04-01T07:22:43;5.43;;;4.90;;
12435;SDS011;6282;51.440;6.938;2023-04-01T07:25:13;5.50;;;4.90;;
12435;SDS011;6282;51.440;6.938;2023-04-01T07:27:41;6.63;;;5.75;;
12435;SDS011;6282;51.440;6.938;2023-04-01T07:30:13;6.95;;;5.53;;
12435;SDS011;6282;51.440;6.938;2023-04-01T07:32:42;8.68;;;6.30;;
12435;SDS011;6282;51.440;6.938;2023-04-01T07:35:24;8.13;;;6.40;;
12435;SDS011;6282;51.440;6.938;2023-04-01T07:37:59;7.65;;;6.85;;
12435;SDS011;6282;51.440;6.938;2023-04-01T07:40:39;7.22;;;6.53;;
12435;SDS011;6282;51.440;6.938;2023-04-01T07:43:22;8.50;;;7.60;;
12435;SDS011;6282;51.440;6.938;2023-04-01T07:46:01;9.30;;;7.50;;
12435;SDS011;6282;51.440;6.938;2023-04-01T07:48:39;7.90;;;7.10;;
12435;SDS011;6282;51.440;6.938;2023-04-01T07:51:14;7.68;;;6.38;;
12435;SDS011;6282;51.440;6.938;2023-04-01T07:53:47;7.65;;;6.95;;
12435;SDS011;6282;51.440;6.938;2023-04-01T07:56:21;7.88;;;6.82;;
12435;SDS011;6282;51.440;6.938;2023-04-01T07:58:56;6.57;;;5.97;;
12435;SDS011;6282;51.440;6.938;2023-04-01T08:01:29;7.53;;;6.68;;
12435;SDS011;6282;51.440;6.938;2023-04-01T08:07:05;6.93;;;6.07;;
12435;SDS011;6282;51.440;6.938;2023-04-01T08:09:36;7.25;;;6.57;;
12435;SDS011;6282;51.440;6.938;2023-04-01T08:12:13;8.30;;;6.88;;
12435;SDS011;6282;51.440;6.938;2023-04-01T08:14:52;9.65;;;8.75;;
12435;SDS011;6282;51.440;6.938;2023-04-01T08:17:28;8.00;;;7.13;;
12435;SDS011;6282;51.440;6.938;2023-04-01T08:20:09;8.73;;;6.82;;
12435;SDS011;6282;51.440;6.938;2023-04-01T08:22:48;8.15;;;6.70;;
12435;SDS011;6282;51.440;6.938;2023-04-01T08:25:17;7.28;;;6.18;;
12435;SDS011;6282;51.440;6.938;2023-04-01T08:27:49;7.15;;;6.47;;
12435;SDS011;6282;51.440;6.938;2023-04-01T08:30:20;9.75;;;7.45;;
12435;SDS011;6282;51.440;6.938;2023-04-01T08:32:50;8.27;;;7.38;;
12435;SDS011;6282;51.440;6.938;2023-04-01T08:35:26;10.05;;;7.65;;
12435;SDS011;6282;51.440;6.938;2023-04-01T08:37:58;9.10;;;6.57;;
12435;SDS011;6282;51.440;6.938;2023-04-01T08:40:39;7.57;;;6.82;;
12435;SDS011;6282;51.440;6.938;2023-04-01T08:43:20;7.25;;;6.55;;
12435;SDS011;6282;51.440;6.938;2023-04-01T08:46:06;7.22;;;6.53;;
12435;SDS011;6282;51.440;6.938;2023-04-01T08:49:03;7.82;;;6.45;;
12435;SDS011;6282;51.440;6.938;2023-04-01T08:54:54;8.77;;;6.80;;
12435;SDS011;6282;51.440;6.938;2023-04-01T08:57:44;8.10;;;6.70;;
12435;SDS011;6282;51.440;6.938;2023-04-01T09:00:21;7.10;;;6.40;;
12435;SDS011;6282;51.440;6.938;2023-04-01T09:02:59;10.60;;;8.38;;
12435;SDS011;6282;51.440;6.938;2023-04-01T09:12:10;20.67;;;18.50;;
12435;SDS011;6282;51.440;6.938;2023-04-01T09:18:09;11.73;;;8.43;;
12435;SDS011;6282;51.440;6.938;2023-04-01T09:20:47;11.32;;;9.10;;
12435;SDS011;6282;51.440;6.938;2023-04-01T09:23:56;11.10;;;8.93;;
12435;SDS011;6282;51.440;6.938;2023-04-01T09:26:51;11.23;;;8.77;;
12435;SDS011;6282;51.440;6.938;2023-04-01T09:29:34;10.25;;;7.93;;
12435;SDS011;6282;51.440;6.938;2023-04-01T09:32:31;12.48;;;8.30;;
12435;SDS011;6282;51.440;6.938;2023-04-01T09:35:18;9.60;;;7.55;;
12435;SDS011;6282;51.440;6.938;2023-04-01T09:37:51;10.02;;;8.20;;
12435;SDS011;6282;51.440;6.938;2023-04-01T09:40:22;9.70;;;7.22;;
12435;SDS011;6282;51.440;6.938;2023-04-01T09:46:06;10.13;;;8.10;;
12435;SDS011;6282;51.440;6.938;2023-04-01T09:51:53;11.30;;;9.00;;
12435;SDS011;6282;51.440;6.938;2023-04-01T09:54:39;11.55;;;8.88;;
12435;SDS011;6282;51.440;6.938;2023-04-01T09:57:28;11.52;;;9.27;;
12435;SDS011;6282;51.440;6.938;2023-04-01T10:00:43;10.68;;;8.82;;
12435;SDS011;6282;51.440;6.938;2023-04-01T10:13:09;11.60;;;8.20;;
12435;SDS011;6282;51.440;6.938;2023-04-01T10:16:03;10.38;;;7.95;;
12435;SDS011;6282;51.440;6.938;2023-04-01T10:22:00;10.00;;;8.50;;
12435;SDS011;6282;51.440;6.938;2023-04-01T10:24:55;11.23;;;9.45;;
12435;SDS011;6282;51.440;6.938;2023-04-01T10:27:49;11.15;;;9.88;;
12435;SDS011;6282;51.440;6.938;2023-04-01T10:36:48;12.02;;;8.82;;
12435;SDS011;6282;51.440;6.938;2023-04-01T10:39:29;11.80;;;8.50;;
12435;SDS011;6282;51.440;6.938;2023-04-01T10:42:07;10.18;;;8.40;;
12435;SDS011;6282;51.440;6.938;2023-04-01T10:45:05;11.45;;;8.60;;
12435;SDS011;6282;51.440;6.938;2023-04-01T10:48:01;11.50;;;8.82;;
12435;SDS011;6282;51.440;6.938;2023-04-01T10:51:05;11.30;;;9.32;;
12435;SDS011;6282;51.440;6.938;2023-04-01T10:53:42;9.65;;;8.55;;
12435;SDS011;6282;51.440;6.938;2023-04-01T10:56:29;12.50;;;8.73;;
12435;SDS011;6282;51.440;6.938;2023-04-01T11:05:32;10.38;;;8.52;;
12435;SDS011;6282;51.440;6.938;2023-04-01T11:11:54;13.48;;;9.40;;
12435;SDS011;6282;51.440;6.938;2023-04-01T11:20:51;13.93;;;9.63;;
12435;SDS011;6282;51.440;6.938;2023-04-01T11:26:50;14.55;;;10.48;;
12435;SDS011;6282;51.440;6.938;2023-04-01T11:29:35;13.38;;;10.07;;
12435;SDS011;6282;51.440;6.938;2023-04-01T11:32:16;11.15;;;9.43;;
12435;SDS011;6282;51.440;6.938;2023-04-01T11:34:55;14.10;;;10.25;;
12435;SDS011;6282;51.440;6.938;2023-04-01T11:37:30;12.85;;;9.55;;
12435;SDS011;6282;51.440;6.938;2023-04-01T11:40:06;12.75;;;10.50;;
12435;SDS011;6282;51.440;6.938;2023-04-01T11:42:46;13.10;;;9.85;;
12435;SDS011;6282;51.440;6.938;2023-04-01T11:45:21;11.50;;;9.88;;
12435;SDS011;6282;51.440;6.938;2023-04-01T11:48:03;11.27;;;9.57;;
12435;SDS011;6282;51.440;6.938;2023-04-01T11:51:06;11.35;;;9.25;;
12435;SDS011;6282;51.440;6.938;2023-04-01T11:53:47;11.43;;;10.18;;
12435;SDS011;6282;51.440;6.938;2023-04-01T11:56:26;10.23;;;9.18;;
12435;SDS011;6282;51.440;6.938;2023-04-01T11:59:11;11.98;;;10.43;;
12435;SDS011;6282;51.440;6.938;2023-04-01T12:01:57;15.43;;;9.82;;
12435;SDS011;6282;51.440;6.938;2023-04-01T12:07:32;13.00;;;9.50;;
12435;SDS011;6282;51.440;6.938;2023-04-01T12:10:13;17.25;;;12.35;;
12435;SDS011;6282;51.440;6.938;2023-04-01T12:12:46;17.25;;;13.95;;
12435;SDS011;6282;51.440;6.938;2023-04-01T12:15:22;14.02;;;12.05;;
12435;SDS011;6282;51.440;6.938;2023-04-01T12:17:56;15.57;;;12.25;;
12435;SDS011;6282;51.440;6.938;2023-04-01T12:20:34;18.05;;;13.57;;
12435;SDS011;6282;51.440;6.938;2023-04-01T12:23:13;13.45;;;11.80;;
12435;SDS011;6282;51.440;6.938;2023-04-01T12:26:06;12.50;;;11.00;;
12435;SDS011;6282;51.440;6.938;2023-04-01T12:28:48;12.05;;;10.07;;
12435;SDS011;6282;51.440;6.938;2023-04-01T12:31:29;11.05;;;9.75;;
12435;SDS011;6282;51.440;6.938;2023-04-01T12:37:26;15.20;;;12.60;;
12435;SDS011;6282;51.440;6.938;2023-04-01T12:43:04;14.05;;;11.50;;
12435;SDS011;6282;51.440;6.938;2023-04-01T12:45:40;12.25;;;9.77;;
12435;SDS011;6282;51.440;6.938;2023-04-01T12:48:35;12.00;;;10.27;;
12435;SDS011;6282;51.440;6.938;2023-04-01T12:51:29;10.73;;;8.13;;
12435;SDS011;6282;51.440;6.938;2023-04-01T12:54:26;9.63;;;8.05;;
12435;SDS011;6282;51.440;6.938;2023-04-01T12:57:34;10.63;;;7.25;;
12435;SDS011;6282;51.440;6.938;2023-04-01T13:00:27;8.23;;;7.32;;
12435;SDS011;6282;51.440;6.938;2023-04-01T13:06:09;9.10;;;7.50;;
12435;SDS011;6282;51.440;6.938;2023-04-01T13:08:58;9.35;;;7.30;;
12435;SDS011;6282;51.440;6.938;2023-04-01T13:11:36;9.65;;;8.30;;
12435;SDS011;6282;51.440;6.938;2023-04-01T13:14:18;7.75;;;6.43;;
12435;SDS011;6282;51.440;6.938;2023-04-01T13:17:17;8.38;;;7.05;;
12435;SDS011;6282;51.440;6.938;2023-04-01T13:19:51;7.90;;;6.90;;
12435;SDS011;6282;51.440;6.938;2023-04-01T13:22:25;9.45;;;7.18;;
12435;SDS011;6282;51.440;6.938;2023-04-01T13:24:58;8.40;;;7.35;;
12435;SDS011;6282;51.440;6.938;2023-04-01T13:27:30;8.98;;;7.13;;
12435;SDS011;6282;51.440;6.938;2023-04-01T13:30:07;8.65;;;6.78;;
12435;SDS011;6282;51.440;6.938;2023-04-01T13:32:48;9.55;;;6.88;;
12435;SDS011;6282;51.440;6.938;2023-04-01T13:35:26;8.70;;;6.90;;
12435;SDS011;6282;51.440;6.938;2023-04-01T13:38:08;9.02;;;7.40;;
12435;SDS011;6282;51.440;6.938;2023-04-01T13:40:48;8.25;;;7.40;;
12435;SDS011;6282;51.440;6.938;2023-04-01T13:43:21;7.75;;;6.72;;
12435;SDS011;6282;51.440;6.938;2023-04-01T13:48:52;10.68;;;6.90;;
12435;SDS011;6282;51.440;6.938;2023-04-01T13:51:46;8.15;;;7.13;;
12435;SDS011;6282;51.440;6.938;2023-04-01T13:57:36;7.30;;;6.15;;
12435;SDS011;6282;51.440;6.938;2023-04-01T14:00:19;8.95;;;6.40;;
12435;SDS011;6282;51.440;6.938;2023-04-01T14:02:57;9.75;;;7.13;;
12435;SDS011;6282;51.440;6.938;2023-04-01T14:05:43;9.57;;;6.78;;
12435;SDS011;6282;51.440;6.938;2023-04-01T14:08:39;9.70;;;6.95;;
12435;SDS011;6282;51.440;6.938;2023-04-01T14:11:19;9.25;;;7.90;;
12435;SDS011;6282;51.440;6.938;2023-04-01T14:13:56;8.75;;;7.85;;
12435;SDS011;6282;51.440;6.938;2023-04-01T14:16:37;8.35;;;7.32;;
12435;SDS011;6282;51.440;6.938;2023-04-01T14:19:27;9.13;;;7.72;;
12435;SDS011;6282;51.440;6.938;2023-04-01T14:22:10;8.90;;;7.38;;
12435;SDS011;6282;51.440;6.938;2023-04-01T14:24:52;9.50;;;7.22;;
12435;SDS011;6282;51.440;6.938;2023-04-01T14:27:41;11.82;;;7.70;;
12435;SDS011;6282;51.440;6.938;2023-04-01T14:30:20;11.43;;;8.70;;
12435;SDS011;6282;51.440;6.938;2023-04-01T14:32:57;11.50;;;8.45;;
12435;SDS011;6282;51.440;6.938;2023-04-01T14:35:33;10.65;;;8.13;;
12435;SDS011;6282;51.440;6.938;2023-04-01T14:38:14;9.63;;;8.00;;
12435;SDS011;6282;51.440;6.938;2023-04-01T14:40:58;10.73;;;7.90;;
12435;SDS011;6282;51.440;6.938;2023-04-01T14:44:01;12.27;;;8.88;;
12435;SDS011;6282;51.440;6.938;2023-04-01T14:50:03;10.15;;;8.18;;
12435;SDS011;6282;51.440;6.938;2023-04-01T14:52:35;12.23;;;8.82;;
12435;SDS011;6282;51.440;6.938;2023-04-01T14:55:15;9.02;;;7.72;;
12435;SDS011;6282;51.440;6.938;2023-04-01T14:57:59;9.95;;;7.25;;
12435;SDS011;6282;51.440;6.938;2023-04-01T15:00:39;8.20;;;6.50;;
12435;SDS011;6282;51.440;6.938;2023-04-01T15:03:15;8.50;;;7.60;;
12435;SDS011;6282;51.440;6.938;2023-04-01T15:05:52;8.32;;;7.18;;
12435;SDS011;6282;51.440;6.938;2023-04-01T15:08:23;10.20;;;7.45;;
12435;SDS011;6282;51.440;6.938;2023-04-01T15:11:13;9.55;;;7.80;;
12435;SDS011;6282;51.440;6.938;2023-04-01T15:14:13;9.65;;;7.72;;
12435;SDS011;6282;51.440;6.938;2023-04-01T15:16:55;9.10;;;7.40;;
12435;SDS011;6282;51.440;6.938;2023-04-01T15:19:31;8.02;;;6.97;;
12435;SDS011;6282;51.440;6.938;2023-04-01T15:22:15;9.00;;;7.32;;
12435;SDS011;6282;51.440;6.938;2023-04-01T15:24:56;8.23;;;7.43;;
12435;SDS011;6282;51.440;6.938;2023-04-01T15:27:34;7.55;;;6.28;;
12435;SDS011;6282;51.440;6.938;2023-04-01T15:33:11;6.95;;;6.20;;
12435;SDS011;6282;51.440;6.938;2023-04-01T15:35:50;6.55;;;5.93;;
12435;SDS011;6282;51.440;6.938;2023-04-01T15:38:27;6.13;;;5.53;;
12435;SDS011;6282;51.440;6.938;2023-04-01T15:41:02;7.75;;;6.35;;
12435;SDS011;6282;51.440;6.938;2023-04-01T15:43:40;6.10;;;5.50;;
12435;SDS011;6282;51.440;6.938;2023-04-01T15:46:14;6.25;;;5.47;;
12435;SDS011;6282;51.440;6.938;2023-04-01T15:49:21;6.63;;;5.43;;
12435;SDS011;6282;51.440;6.938;2023-04-01T15:52:03;5.00;;;4.13;;
12435;SDS011;6282;51.440;6.938;2023-04-01T15:57:36;5.40;;;4.90;;
12435;SDS011;6282;51.440;6.938;2023-04-01T16:00:18;5.55;;;5.03;;
12435;SDS011;6282;51.440;6.938;2023-04-01T16:02:52;5.22;;;4.72;;
12435;SDS011;6282;51.440;6.938;2023-04-01T16:05:37;5.65;;;5.07;;
12435;SDS011;6282;51.440;6.938;2023-04-01T16:08:22;6.35;;;5.75;;
12435;SDS011;6282;51.440;6.938;2023-04-01T16:11:18;5.47;;;4.93;;
12435;SDS011;6282;51.440;6.938;2023-04-01T16:13:54;5.47;;;4.97;;
12435;SDS011;6282;51.440;6.938;2023-04-01T16:16:32;6.22;;;4.68;;
12435;SDS011;6282;51.440;6.938;2023-04-01T16:22:11;6.30;;;5.70;;
12435;SDS011;6282;51.440;6.938;2023-04-01T16:24:43;6.63;;;6.03;;
12435;SDS011;6282;51.440;6.938;2023-04-01T16:27:14;6.75;;;6.10;;
12435;SDS011;6282;51.440;6.938;2023-04-01T16:29:51;6.25;;;5.47;;
12435;SDS011;6282;51.440;6.938;2023-04-01T16:32:23;6.57;;;5.72;;
12435;SDS011;6282;51.440;6.938;2023-04-01T16:35:13;7.13;;;6.43;;
12435;SDS011;6282;51.440;6.938;2023-04-01T16:37:54;7.35;;;6.32;;
12435;SDS011;6282;51.440;6.938;2023-04-01T16:40:34;6.97;;;6.28;;
12435;SDS011;6282;51.440;6.938;2023-04-01T16:43:10;7.05;;;6.15;;
12435;SDS011;6282;51.440;6.938;2023-04-01T16:45:43;8.63;;;6.30;;
12435;SDS011;6282;51.440;6.938;2023-04-01T16:48:20;6.43;;;5.70;;
12435;SDS011;6282;51.440;6.938;2023-04-01T16:50:53;8.00;;;6.70;;
12435;SDS011;6282;51.440;6.938;2023-04-01T16:53:28;7.07;;;5.68;;
12435;SDS011;6282;51.440;6.938;2023-04-01T16:56:04;9.88;;;8.45;;
12435;SDS011;6282;51.440;6.938;2023-04-01T16:58:39;7.53;;;6.22;;
12435;SDS011;6282;51.440;6.938;2023-04-01T17:01:09;7.25;;;6.47;;
12435;SDS011;6282;51.440;6.938;2023-04-01T17:03:42;7.40;;;6.50;;
12435;SDS011;6282;51.440;6.938;2023-04-01T17:06:14;8.32;;;7.15;;
12435;SDS011;6282;51.440;6.938;2023-04-01T17:11:46;7.97;;;6.90;;
12435;SDS011;6282;51.440;6.938;2023-04-01T17:14:22;11.60;;;8.13;;
12435;SDS011;6282;51.440;6.938;2023-04-01T17:20:10;10.13;;;8.27;;
12435;SDS011;6282;51.440;6.938;2023-04-01T17:22:47;13.45;;;8.48;;
12435;SDS011;6282;51.440;6.938;2023-04-01T17:28:18;13.15;;;9.50;;
12435;SDS011;6282;51.440;6.938;2023-04-01T17:30:57;11.10;;;8.68;;
12435;SDS011;6282;51.440;6.938;2023-04-01T17:33:32;11.00;;;8.60;;
12435;SDS011;6282;51.440;6.938;2023-04-01T17:36:12;12.45;;;9.73;;
12435;SDS011;6282;51.440;6.938;2023-04-01T17:39:08;11.48;;;9.48;;
12435;SDS011;6282;51.440;6.938;2023-04-01T17:41:50;13.30;;;10.30;;
12435;SDS011;6282;51.440;6.938;2023-04-01T17:44:31;12.23;;;9.85;;
12435;SDS011;6282;51.440;6.938;2023-04-01T17:49:57;13.40;;;10.32;;
12435;SDS011;6282;51.440;6.938;2023-04-01T17:52:31;14.52;;;10.95;;